Time;durP1;ratioP1;P1;durP2;ratioP2;P2;SDS_P1;SDS_P2;PMS_P1;PMS_P2;Temp;Humidity;BMP_temperature;BMP_pressure;BME280_temperature;BME280_humidity;BME280_pressure;Samples;Min_cycle;Max_cycle;Signal;HPM_P1;HPM_P2
2021/06/21 00:02:22;;;;;;;;;;;28.80;86.20;;;;;;1853928;76;20526;-93
2021/06/21 00:04:53;;;;;;;;;;;28.80;86.60;;;;;;1851932;76;20203;-92
2021/06/21 00:07:23;;;;;;;;;;;28.90;86.50;;;;;;1849096;76;20182;-93
2021/06/21 00:09:52;;;;;;;;;;;28.90;87.40;;;;;;1851242;76;20223;-92
2021/06/21 00:12:22;;;;;;;;;;;29.00;86.20;;;;;;1850618;76;20135;-92
2021/06/21 00:14:51;;;;;;;;;;;29.10;85.70;;;;;;1836737;77;20234;-92
2021/06/21 00:17:21;;;;;;;;;;;29.10;85.50;;;;;;1826752;77;20672;-91
2021/06/21 00:19:50;;;;;;;;;;;29.10;85.50;;;;;;1831391;78;20179;-93
2021/06/21 00:22:20;;;;;;;;;;;29.20;85.40;;;;;;1829020;78;20395;-92
2021/06/21 00:24:50;;;;;;;;;;;29.20;85.00;;;;;;1829929;78;20249;-89
2021/06/21 00:27:19;;;;;;;;;;;29.30;84.90;;;;;;1824819;78;20200;-90
2021/06/21 00:29:49;;;;;;;;;;;29.20;84.90;;;;;;1826993;77;20142;-93
2021/06/21 00:32:18;;;;;;;;;;;29.30;84.40;;;;;;1878174;76;20447;-91
2021/06/21 00:34:48;;;;;;;;;;;29.30;84.50;;;;;;1847005;76;20201;-93
2021/06/21 00:37:17;;;;;;;;;;;29.40;83.70;;;;;;1813320;77;20137;-91
2021/06/21 00:39:47;;;;;;;;;;;29.40;83.50;;;;;;1843247;77;20208;-90
2021/06/21 00:42:17;;;;;;;;;;;29.40;83.20;;;;;;1846700;78;20581;-91
2021/06/21 00:44:46;;;;;;;;;;;29.50;83.20;;;;;;1844780;78;20203;-89
2021/06/21 00:47:18;;;;;;;;;;;29.50;83.60;;;;;;1848621;77;20277;-92
2021/06/21 00:49:47;;;;;;;;;;;29.60;83.60;;;;;;1801784;77;20175;-92
2021/06/21 00:52:18;;;;;;;;;;;29.60;83.70;;;;;;1848035;76;20214;-89
2021/06/21 00:54:47;;;;;;;;;;;29.70;82.50;;;;;;1851733;76;20178;-92
2021/06/21 00:57:17;;;;;;;;;;;29.80;82.30;;;;;;1846788;78;20151;-91
2021/06/21 00:59:47;;;;;;;;;;;29.90;82.40;;;;;;1841998;76;20202;-91
2021/06/21 01:02:17;;;;;;;;;;;30.00;81.80;;;;;;1805735;78;20258;-92
2021/06/21 01:04:47;;;;;;;;;;;30.10;81.50;;;;;;1810133;78;20248;-90
2021/06/21 01:07:17;;;;;;;;;;;30.20;80.60;;;;;;1862593;75;20239;-92
2021/06/21 01:09:47;;;;;;;;;;;30.30;80.60;;;;;;1868980;77;20211;-92
2021/06/21 01:12:18;;;;;;;;;;;30.40;80.30;;;;;;1866889;77;20122;-92
2021/06/21 01:14:49;;;;;;;;;;;30.40;79.00;;;;;;1864149;75;20523;-90
2021/06/21 01:17:21;;;;;;;;;;;30.50;78.10;;;;;;1859222;77;20475;-92
2021/06/21 01:19:52;;;;;;;;;;;30.60;78.20;;;;;;1865648;77;20447;-93
2021/06/21 01:22:24;;;;;;;;;;;30.70;78.50;;;;;;1867324;76;20164;-92
2021/06/21 01:24:54;;;;;;;;;;;30.70;76.10;;;;;;1866990;77;20192;-92
2021/06/21 01:27:27;;;;;;;;;;;30.80;77.40;;;;;;1868644;76;20235;-92
2021/06/21 01:29:58;;;;;;;;;;;30.90;77.90;;;;;;1865068;75;20152;-91
2021/06/21 01:32:29;;;;;;;;;;;31.00;77.50;;;;;;1872396;75;20247;-94
2021/06/21 01:35:00;;;;;;;;;;;31.00;76.50;;;;;;1834802;76;20254;-93
2021/06/21 01:37:30;;;;;;;;;;;31.10;76.70;;;;;;1832986;78;20174;-92
2021/06/21 01:40:01;;;;;;;;;;;31.20;76.90;;;;;;1840909;78;20198;-92
2021/06/21 01:42:32;;;;;;;;;;;31.20;76.40;;;;;;1841001;78;20241;-93
2021/06/21 01:45:04;;;;;;;;;;;31.30;75.30;;;;;;1840062;77;20256;-95
2021/06/21 01:47:34;;;;;;;;;;;31.40;74.50;;;;;;1838469;77;20186;-92
2021/06/21 01:50:04;;;;;;;;;;;31.60;74.30;;;;;;1839116;76;20226;-93
2021/06/21 01:52:35;;;;;;;;;;;31.60;74.30;;;;;;1836749;77;20182;-92
2021/06/21 01:55:06;;;;;;;;;;;31.70;73.90;;;;;;1833878;76;20121;-90
2021/06/21 01:57:37;;;;;;;;;;;31.80;72.90;;;;;;1802362;79;20601;-92
2021/06/21 02:00:08;;;;;;;;;;;31.90;72.50;;;;;;1832258;76;20213;-91
2021/06/21 02:02:39;;;;;;;;;;;31.90;71.50;;;;;;1862044;75;20408;-92
2021/06/21 02:05:09;;;;;;;;;;;32.00;69.90;;;;;;1861809;77;20210;-92
2021/06/21 02:07:40;;;;;;;;;;;32.10;68.60;;;;;;1863420;77;20208;-92
2021/06/21 02:10:10;;;;;;;;;;;32.10;67.90;;;;;;1836432;78;20139;-92
2021/06/21 02:12:42;;;;;;;;;;;32.10;68.90;;;;;;1807515;77;20172;-91
2021/06/21 02:15:12;;;;;;;;;;;32.20;69.20;;;;;;1869635;76;20156;-92
2021/06/21 02:17:42;;;;;;;;;;;32.30;67.60;;;;;;1870781;75;20184;-93
2021/06/21 02:20:13;;;;;;;;;;;32.40;68.20;;;;;;1868338;75;20176;-94
2021/06/21 02:22:43;;;;;;;;;;;32.40;69.00;;;;;;1868655;75;20133;-92
2021/06/21 02:25:13;;;;;;;;;;;32.50;68.80;;;;;;1864045;77;20264;-89
2021/06/21 02:27:47;;;;;;;;;;;32.70;68.10;;;;;;1835868;78;20191;-92
2021/06/21 02:30:17;;;;;;;;;;;32.80;67.20;;;;;;1824646;78;20202;-91
2021/06/21 02:32:48;;;;;;;;;;;32.90;67.20;;;;;;1843334;76;20387;-92
2021/06/21 02:35:20;;;;;;;;;;;33.00;65.90;;;;;;1830528;78;20214;-91
2021/06/21 02:37:50;;;;;;;;;;;33.00;65.60;;;;;;1863274;76;20195;-92
2021/06/21 02:40:20;;;;;;;;;;;33.20;65.60;;;;;;1866718;77;20219;-90
2021/06/21 02:42:51;;;;;;;;;;;33.30;64.40;;;;;;1870066;77;20324;-92
2021/06/21 02:45:26;;;;;;;;;;;33.30;65.00;;;;;;1865573;76;20137;-91
2021/06/21 02:47:53;;;;;;;;;;;33.30;64.50;;;;;;1866650;77;20460;-92
2021/06/21 02:50:24;;;;;;;;;;;33.40;64.60;;;;;;1837209;77;20291;-92
2021/06/21 02:53:03;;;;;;;;;;;33.50;64.80;;;;;;1836678;76;20451;-88
2021/06/21 02:55:34;;;;;;;;;;;33.50;64.40;;;;;;1804746;79;20223;-91
2021/06/21 02:58:05;;;;;;;;;;;33.60;64.50;;;;;;1868493;75;20534;-92
2021/06/21 03:03:25;;;;;;;;;;;33.70;63.30;;;;;;1968178;72;20155;-92
2021/06/21 03:05:56;;;;;;;;;;;33.70;61.90;;;;;;1971316;72;20111;-91
2021/06/21 03:08:26;;;;;;;;;;;33.70;63.00;;;;;;1980016;72;20516;-90
2021/06/21 03:11:00;;;;;;;;;;;33.80;63.50;;;;;;1975705;72;20123;-92
2021/06/21 03:13:29;;;;;;;;;;;33.80;64.10;;;;;;1937207;72;20508;-90
2021/06/21 03:16:00;;;;;;;;;;;33.90;62.60;;;;;;1977840;72;20178;-91
2021/06/21 03:18:31;;;;;;;;;;;33.90;61.80;;;;;;1968052;71;20214;-92
2021/06/21 03:21:08;;;;;;;;;;;34.00;61.70;;;;;;1976009;71;20525;-94
2021/06/21 03:23:39;;;;;;;;;;;34.10;61.00;;;;;;1972631;72;20207;-93
2021/06/21 03:26:10;;;;;;;;;;;34.20;59.70;;;;;;1972437;72;20173;-92
2021/06/21 03:28:43;;;;;;;;;;;34.40;57.50;;;;;;1975432;72;20180;-93
2021/06/21 03:31:14;;;;;;;;;;;34.50;56.60;;;;;;1981356;72;20582;-90
2021/06/21 03:33:49;;;;;;;;;;;34.40;56.70;;;;;;1968822;72;20285;-89
2021/06/21 03:36:17;;;;;;;;;;;34.50;57.70;;;;;;1976497;72;20615;-92
2021/06/21 03:38:49;;;;;;;;;;;34.50;56.50;;;;;;1975127;72;20141;-93
2021/06/21 03:41:19;;;;;;;;;;;34.50;56.50;;;;;;1973231;72;20167;-91
2021/06/21 03:43:52;;;;;;;;;;;34.50;56.90;;;;;;1975118;72;20198;-89
2021/06/21 03:46:24;;;;;;;;;;;34.60;56.60;;;;;;1972125;71;20576;-91
2021/06/21 03:48:57;;;;;;;;;;;34.60;56.60;;;;;;1972827;72;20147;-90
2021/06/21 03:51:31;;;;;;;;;;;34.70;56.20;;;;;;1979664;72;20302;-88
2021/06/21 03:54:04;;;;;;;;;;;34.70;56.70;;;;;;1971027;72;20251;-90
2021/06/21 03:56:41;;;;;;;;;;;34.70;57.00;;;;;;1981534;72;20146;-94
2021/06/21 03:59:20;;;;;;;;;;;34.80;57.00;;;;;;1972258;72;20211;-92
2021/06/21 04:01:57;;;;;;;;;;;34.80;56.90;;;;;;1972033;70;20160;-92
2021/06/21 04:04:44;;;;;;;;;;;34.90;56.70;;;;;;1973503;72;20188;-90
2021/06/21 04:07:16;;;;;;;;;;;35.00;56.70;;;;;;1975058;72;20134;-89
2021/06/21 04:09:59;;;;;;;;;;;35.10;56.50;;;;;;1973350;72;20192;-91
2021/06/21 04:12:33;;;;;;;;;;;35.20;56.10;;;;;;1971749;72;20192;-89
2021/06/21 04:15:05;;;;;;;;;;;35.30;54.70;;;;;;1968031;72;20203;-91
2021/06/21 04:17:40;;;;;;;;;;;35.40;54.10;;;;;;1966645;72;20180;-89
2021/06/21 04:20:11;;;;;;;;;;;35.40;54.50;;;;;;1964578;72;20222;-92
2021/06/21 04:22:48;;;;;;;;;;;35.40;53.20;;;;;;1965241;72;20167;-91
2021/06/21 04:25:31;;;;;;;;;;;35.40;52.80;;;;;;1966033;72;20536;-95
2021/06/21 04:28:07;;;;;;;;;;;35.40;53.30;;;;;;1967685;72;20215;-93
2021/06/21 04:30:39;;;;;;;;;;;35.50;54.80;;;;;;1966218;72;20529;-93
2021/06/21 04:33:15;;;;;;;;;;;35.40;54.60;;;;;;1973646;72;20169;-93
2021/06/21 04:36:04;;;;;;;;;;;35.50;53.90;;;;;;1972393;72;20167;-93
2021/06/21 04:38:34;;;;;;;;;;;35.40;54.60;;;;;;1979298;72;20200;-93
2021/06/21 04:41:04;;;;;;;;;;;35.50;53.10;;;;;;1983316;72;20194;-93
2021/06/21 04:43:34;;;;;;;;;;;35.50;53.90;;;;;;1969112;72;20155;-93
2021/06/21 04:46:21;;;;;;;;;;;;;;;;;;;;;
2021/06/21 04:48:50;;;;;;;;;;;35.60;52.80;;;;;;1829251;76;20192;-92
2021/06/21 04:51:24;;;;;;;;;;;35.70;51.90;;;;;;1844302;76;20147;-94
2021/06/21 04:53:59;;;;;;;;;;;35.70;52.30;;;;;;1856745;76;20256;-91
2021/06/21 04:56:31;;;;;;;;;;;35.80;53.10;;;;;;1855693;77;20229;-92
2021/06/21 04:59:04;;;;;;;;;;;35.90;52.90;;;;;;1785216;79;20182;-90
2021/06/21 05:01:36;;;;;;;;;;;36.00;51.10;;;;;;1788532;79;20235;-89
2021/06/21 05:04:09;;;;;;;;;;;36.00;51.70;;;;;;1821192;77;20234;-88
2021/06/21 05:06:39;;;;;;;;;;;36.00;49.10;;;;;;1783853;79;20253;-92
2021/06/21 05:09:11;;;;;;;;;;;35.90;50.00;;;;;;1829188;77;20209;-92
2021/06/21 05:11:40;;;;;;;;;;;35.80;50.20;;;;;;1835892;77;20793;-89
2021/06/21 05:14:17;;;;;;;;;;;35.80;51.60;;;;;;1834908;77;20224;-92
2021/06/21 05:17:13;;;;;;;;;;;;;;;;;;;;;
2021/06/21 05:19:57;;;;;;;;;;;35.80;51.60;;;;;;1833117;76;20228;-93
2021/06/21 05:22:34;;;;;;;;;;;35.90;52.50;;;;;;1837382;77;20193;-91
2021/06/21 05:25:22;;;;;;;;;;;36.00;51.30;;;;;;1825891;77;20225;-91
2021/06/21 05:27:55;;;;;;;;;;;36.10;51.20;;;;;;1813942;78;20207;-91
2021/06/21 05:30:47;;;;;;;;;;;36.10;52.00;;;;;;1848178;75;20197;-90
2021/06/21 05:33:43;;;;;;;;;;;;;;;;;;;;;
2021/06/21 05:38:49;;;;;;;;;;;36.20;50.30;;;;;;1856984;76;20092;-94
2021/06/21 05:41:28;;;;;;;;;;;36.20;50.40;;;;;;1856741;73;20151;-91
2021/06/21 05:44:16;;;;;;;;;;;36.20;51.50;;;;;;1863064;74;20124;-93
2021/06/21 05:46:56;;;;;;;;;;;36.20;51.50;;;;;;1858973;74;20201;-92
2021/06/21 05:49:48;;;;;;;;;;;36.20;51.10;;;;;;1858226;74;20213;-93
2021/06/21 05:52:38;;;;;;;;;;;36.40;49.80;;;;;;1857333;75;20127;-93
2021/06/21 05:55:23;;;;;;;;;;;36.40;49.80;;;;;;1870610;74;20222;-93
2021/06/21 05:57:47;;;;;;;;;;;36.50;49.80;;;;;;1860162;74;20190;-92
2021/06/21 06:00:17;;;;;;;;;;;36.50;49.00;;;;;;1861235;74;20127;-93
2021/06/21 06:02:48;;;;;;;;;;;36.50;49.50;;;;;;1858388;75;20230;-94
2021/06/21 06:05:20;;;;;;;;;;;36.50;49.60;;;;;;1853266;74;20150;-94
2021/06/21 06:07:54;;;;;;;;;;;36.40;49.20;;;;;;1863614;75;20171;-89
2021/06/21 06:10:24;;;;;;;;;;;36.40;49.30;;;;;;1858664;74;20174;-94
2021/06/21 06:12:55;;;;;;;;;;;36.40;50.00;;;;;;1867163;74;20205;-93
2021/06/21 06:15:26;;;;;;;;;;;36.40;50.20;;;;;;1864558;74;20242;-92
2021/06/21 06:17:55;;;;;;;;;;;36.40;50.60;;;;;;1870246;74;20196;-94
2021/06/21 06:20:31;;;;;;;;;;;36.40;51.80;;;;;;1852265;75;20192;-93
2021/06/21 06:25:53;;;;;;;;;;;36.40;51.00;;;;;;1894556;74;20155;-89
2021/06/21 06:28:23;;;;;;;;;;;36.40;50.40;;;;;;1891739;75;20109;-88
2021/06/21 06:30:54;;;;;;;;;;;36.40;49.50;;;;;;1890769;74;20216;-93
2021/06/21 06:33:28;;;;;;;;;;;36.40;49.70;;;;;;1892763;75;20607;-95
2021/06/21 06:35:58;;;;;;;;;;;36.30;50.60;;;;;;1894387;75;20228;-90
2021/06/21 06:38:27;;;;;;;;;;;36.30;50.80;;;;;;1891104;75;20283;-91
2021/06/21 06:41:29;;;;;;;;;;;36.50;50.10;;;;;;1887583;75;20137;-89
2021/06/21 06:43:40;;;;;;;;;;;36.60;50.10;;;;;;1879252;74;20203;-93
2021/06/21 06:46:09;;;;;;;;;;;36.60;49.50;;;;;;1892863;75;20183;-89
2021/06/21 06:48:45;;;;;;;;;;;36.50;50.10;;;;;;1893464;75;20106;-93
2021/06/21 06:51:11;;;;;;;;;;;36.50;48.20;;;;;;1889295;75;20113;-92
2021/06/21 06:53:50;;;;;;;;;;;36.30;48.10;;;;;;1895893;75;20178;-90
2021/06/21 06:58:45;;;;;;;;;;;36.20;48.80;;;;;;1894010;74;20280;-93
2021/06/21 07:01:23;;;;;;;;;;;36.20;49.10;;;;;;1897436;74;20096;-91
2021/06/21 07:03:52;;;;;;;;;;;36.20;48.70;;;;;;1889611;75;20393;-88
2021/06/21 07:06:22;;;;;;;;;;;36.20;49.40;;;;;;1892730;75;20192;-88
2021/06/21 07:08:52;;;;;;;;;;;36.20;49.80;;;;;;1896427;75;20172;-90
2021/06/21 07:11:21;;;;;;;;;;;36.20;49.00;;;;;;1888666;75;20195;-93
2021/06/21 07:13:51;;;;;;;;;;;36.20;49.10;;;;;;1892146;74;20186;-94
2021/06/21 07:16:22;;;;;;;;;;;36.20;49.20;;;;;;1892607;74;20231;-95
2021/06/21 07:18:54;;;;;;;;;;;36.20;49.80;;;;;;1901721;74;20255;-94
2021/06/21 07:21:28;;;;;;;;;;;36.40;48.20;;;;;;1890841;74;20137;-94
2021/06/21 07:23:59;;;;;;;;;;;36.40;47.80;;;;;;1893445;75;20156;-93
2021/06/21 07:26:29;;;;;;;;;;;36.30;47.10;;;;;;1878116;75;20222;-89
2021/06/21 07:29:02;;;;;;;;;;;36.30;46.70;;;;;;1885932;75;20181;-90
2021/06/21 07:31:32;;;;;;;;;;;36.30;47.10;;;;;;1892945;71;20271;-95
2021/06/21 07:34:05;;;;;;;;;;;36.30;47.20;;;;;;1853736;76;20181;-95
2021/06/21 07:36:38;;;;;;;;;;;36.30;47.00;;;;;;1841850;77;20209;-94
2021/06/21 07:39:18;;;;;;;;;;;36.30;46.50;;;;;;1827569;78;20121;-92
2021/06/21 07:41:41;;;;;;;;;;;36.20;46.60;;;;;;1855194;76;20225;-93
2021/06/21 07:44:13;;;;;;;;;;;36.30;48.10;;;;;;1844298;76;20292;-87
2021/06/21 07:46:42;;;;;;;;;;;36.30;47.70;;;;;;1848985;77;20402;-93
2021/06/21 07:49:15;;;;;;;;;;;36.30;47.00;;;;;;1851345;78;20174;-93
2021/06/21 07:51:45;;;;;;;;;;;36.40;48.40;;;;;;1850790;76;20202;-94
2021/06/21 07:54:20;;;;;;;;;;;36.40;47.10;;;;;;1852026;78;20148;-94
2021/06/21 07:56:47;;;;;;;;;;;36.50;47.60;;;;;;1851426;78;20202;-93
2021/06/21 07:59:18;;;;;;;;;;;36.50;47.70;;;;;;1852339;78;20397;-94
2021/06/21 08:01:48;;;;;;;;;;;36.40;48.00;;;;;;1850499;77;20150;-94
2021/06/21 08:04:18;;;;;;;;;;;36.50;47.80;;;;;;1834064;78;20273;-95
2021/06/21 08:06:48;;;;;;;;;;;36.50;47.80;;;;;;1842631;78;20190;-92
2021/06/21 08:09:17;;;;;;;;;;;36.50;48.50;;;;;;1816099;79;20181;-91
2021/06/21 08:11:47;;;;;;;;;;;36.50;48.50;;;;;;1819067;76;20102;-92
2021/06/21 08:14:17;;;;;;;;;;;36.50;48.70;;;;;;1823890;78;20157;-89
2021/06/21 08:16:49;;;;;;;;;;;36.40;48.50;;;;;;1819265;79;20157;-94
2021/06/21 08:19:21;;;;;;;;;;;36.30;49.00;;;;;;1787338;80;20194;-89
2021/06/21 08:21:51;;;;;;;;;;;36.10;49.60;;;;;;1768410;79;20212;-91
2021/06/21 08:24:21;;;;;;;;;;;36.10;49.80;;;;;;1785167;77;20171;-92
2021/06/21 08:26:51;;;;;;;;;;;35.90;49.90;;;;;;1804280;79;20178;-91
2021/06/21 08:29:20;;;;;;;;;;;35.90;50.00;;;;;;1799820;80;20181;-89
2021/06/21 08:31:50;;;;;;;;;;;35.80;50.30;;;;;;1789933;80;20210;-93
2021/06/21 08:34:20;;;;;;;;;;;35.70;50.20;;;;;;1847144;76;20220;-90
2021/06/21 08:36:53;;;;;;;;;;;35.60;49.90;;;;;;1845161;75;20170;-92
2021/06/21 08:39:24;;;;;;;;;;;35.60;49.80;;;;;;1897706;72;20120;-90
2021/06/21 08:41:55;;;;;;;;;;;35.50;50.00;;;;;;1970231;72;20125;-90
2021/06/21 08:44:26;;;;;;;;;;;35.50;50.60;;;;;;1971508;72;20247;-91
2021/06/21 08:46:56;;;;;;;;;;;35.50;50.80;;;;;;1973079;72;20494;-90
2021/06/21 08:49:26;;;;;;;;;;;35.50;50.00;;;;;;1970995;72;20208;-93
2021/06/21 08:51:57;;;;;;;;;;;35.60;50.00;;;;;;1974580;72;20199;-90
2021/06/21 08:54:27;;;;;;;;;;;35.60;49.70;;;;;;1921673;71;20259;-91
2021/06/21 09:02:45;;;;;;;;;;;35.70;48.10;;;;;;1930469;71;20131;-86
2021/06/21 09:07:38;;;;;;;;;;;35.70;48.00;;;;;;1866152;75;20125;-94
2021/06/21 09:10:13;;;;;;;;;;;35.70;48.20;;;;;;1836137;76;20292;-95
2021/06/21 09:13:02;;;;;;;;;;;35.70;47.50;;;;;;1829838;77;20184;-92
2021/06/21 09:15:33;;;;;;;;;;;35.70;47.90;;;;;;1844364;77;20168;-92
2021/06/21 09:18:08;;;;;;;;;;;35.70;48.80;;;;;;1842026;77;20193;-95
2021/06/21 09:20:46;;;;;;;;;;;35.80;47.70;;;;;;1854542;76;20157;-94
2021/06/21 09:23:22;;;;;;;;;;;35.80;47.60;;;;;;1871105;77;20172;-94
2021/06/21 09:25:53;;;;;;;;;;;35.80;47.30;;;;;;1853895;77;20204;-90
2021/06/21 09:28:34;;;;;;;;;;;35.80;47.80;;;;;;1818951;77;20187;-95
2021/06/21 09:31:01;;;;;;;;;;;35.90;47.60;;;;;;1821648;77;20192;-91
2021/06/21 09:33:34;;;;;;;;;;;35.90;47.30;;;;;;1837223;76;20188;-92
2021/06/21 09:36:06;;;;;;;;;;;35.80;48.40;;;;;;1870630;77;20188;-93
2021/06/21 09:38:45;;;;;;;;;;;35.80;48.20;;;;;;1865405;75;20199;-95
2021/06/21 09:41:11;;;;;;;;;;;35.80;48.20;;;;;;1856954;73;20202;-93
2021/06/21 09:43:42;;;;;;;;;;;35.80;48.00;;;;;;1852728;76;20433;-94
2021/06/21 09:46:13;;;;;;;;;;;35.80;47.50;;;;;;1854753;76;20218;-96
2021/06/21 09:48:44;;;;;;;;;;;35.80;47.80;;;;;;1852669;76;20155;-93
2021/06/21 09:51:20;;;;;;;;;;;35.80;48.20;;;;;;1809409;78;20144;-92
2021/06/21 09:53:54;;;;;;;;;;;35.80;48.30;;;;;;1872759;75;20219;-94
2021/06/21 09:56:34;;;;;;;;;;;35.80;48.40;;;;;;1850454;76;20175;-93
2021/06/21 09:59:04;;;;;;;;;;;35.80;48.70;;;;;;1872049;76;20226;-91
2021/06/21 10:01:35;;;;;;;;;;;35.80;49.60;;;;;;1852423;74;20205;-92
2021/06/21 10:04:06;;;;;;;;;;;35.80;50.20;;;;;;1851060;75;20200;-94
2021/06/21 10:06:37;;;;;;;;;;;35.70;49.00;;;;;;1858916;75;20250;-94
2021/06/21 10:09:25;;;;;;;;;;;35.70;48.80;;;;;;1850264;76;20256;-95
2021/06/21 10:11:59;;;;;;;;;;;35.60;49.10;;;;;;1859760;76;20470;-94
2021/06/21 10:17:09;;;;;;;;;;;35.60;50.10;;;;;;1907937;73;20449;-92
2021/06/21 10:19:39;;;;;;;;;;;35.60;50.00;;;;;;1911455;73;20156;-91
2021/06/21 10:22:14;;;;;;;;;;;35.60;50.10;;;;;;1901827;75;20839;-93
2021/06/21 10:24:54;;;;;;;;;;;35.60;49.80;;;;;;1868680;76;20174;-93
2021/06/21 10:27:30;;;;;;;;;;;35.50;50.10;;;;;;1865277;76;20394;-93
2021/06/21 10:30:02;;;;;;;;;;;35.40;50.10;;;;;;1860541;76;20386;-93
2021/06/21 10:32:35;;;;;;;;;;;35.40;50.10;;;;;;1864066;76;20154;-92
2021/06/21 10:35:06;;;;;;;;;;;35.40;50.40;;;;;;1876143;75;20245;-95
2021/06/21 10:37:38;;;;;;;;;;;35.40;50.40;;;;;;1871949;76;20266;-94
2021/06/21 10:40:29;;;;;;;;;;;35.30;50.50;;;;;;1822630;77;20128;-94
2021/06/21 10:43:05;;;;;;;;;;;35.30;50.50;;;;;;1853356;77;20139;-94
2021/06/21 10:45:34;;;;;;;;;;;35.20;50.60;;;;;;1839753;77;20216;-93
2021/06/21 10:48:06;;;;;;;;;;;35.20;50.60;;;;;;1848497;75;20182;-88
2021/06/21 10:50:40;;;;;;;;;;;35.20;50.50;;;;;;1860567;76;20220;-91
2021/06/21 10:53:09;;;;;;;;;;;35.20;50.70;;;;;;1845814;77;20240;-93
2021/06/21 10:55:49;;;;;;;;;;;35.20;50.70;;;;;;1857716;76;20228;-96
2021/06/21 10:58:23;;;;;;;;;;;35.20;50.70;;;;;;1866557;76;20310;-93
2021/06/21 11:00:56;;;;;;;;;;;35.20;50.50;;;;;;1870571;77;20420;-90
2021/06/21 11:03:29;;;;;;;;;;;35.20;50.90;;;;;;1865256;72;20247;-90
2021/06/21 11:06:03;;;;;;;;;;;35.20;52.80;;;;;;1853268;75;20131;-95
2021/06/21 11:08:38;;;;;;;;;;;35.20;53.30;;;;;;1851143;78;20186;-94
2021/06/21 11:11:16;;;;;;;;;;;35.10;54.20;;;;;;1828768;77;20268;-92
2021/06/21 11:16:46;;;;;;;;;;;35.00;55.30;;;;;;1925990;72;20177;-90
2021/06/21 11:19:37;;;;;;;;;;;35.00;55.90;;;;;;1885034;72;20111;-95
2021/06/21 11:24:56;;;;;;;;;;;34.90;55.80;;;;;;1861870;74;20194;-91
2021/06/21 11:27:27;;;;;;;;;;;34.90;55.90;;;;;;1875733;75;20188;-94
2021/06/21 11:30:01;;;;;;;;;;;34.90;55.80;;;;;;1861808;73;20176;-90
2021/06/21 11:47:00;;;;;;;;;;;34.70;56.60;;;;;;1916454;71;20237;-89
2021/06/21 11:52:20;;;;;;;;;;;34.70;56.90;;;;;;1885303;73;20197;-92
2021/06/21 11:54:50;;;;;;;;;;;34.60;57.10;;;;;;1917699;73;20135;-92
2021/06/21 11:57:25;;;;;;;;;;;34.60;57.30;;;;;;1930993;71;21645;-92
2021/06/21 11:59:54;;;;;;;;;;;34.60;57.40;;;;;;1858697;75;20224;-90
2021/06/21 12:02:26;;;;;;;;;;;34.60;57.70;;;;;;1853757;77;20183;-92
2021/06/21 12:04:59;;;;;;;;;;;34.60;57.90;;;;;;1853193;77;20235;-94
2021/06/21 12:07:29;;;;;;;;;;;34.50;58.20;;;;;;1847647;77;20164;-94
2021/06/21 12:09:59;;;;;;;;;;;34.40;58.20;;;;;;1843457;77;20186;-91
2021/06/21 12:12:30;;;;;;;;;;;34.40;58.60;;;;;;1842154;77;20172;-94
2021/06/21 12:15:01;;;;;;;;;;;34.30;58.60;;;;;;1850307;77;20202;-93
2021/06/21 12:17:35;;;;;;;;;;;34.20;58.80;;;;;;1849767;75;20194;-89
2021/06/21 12:20:17;;;;;;;;;;;34.20;59.00;;;;;;1863900;76;20228;-94
2021/06/21 12:22:47;;;;;;;;;;;34.10;59.10;;;;;;1846727;77;20247;-94
2021/06/21 12:25:21;;;;;;;;;;;34.10;59.10;;;;;;1850552;77;20228;-95
2021/06/21 12:27:51;;;;;;;;;;;34.00;59.50;;;;;;1845998;77;20179;-94
2021/06/21 12:30:22;;;;;;;;;;;34.00;59.70;;;;;;1864054;76;20131;-93
2021/06/21 12:32:53;;;;;;;;;;;33.90;59.80;;;;;;1856367;75;20250;-95
2021/06/21 12:35:22;;;;;;;;;;;33.90;60.00;;;;;;1848954;77;20166;-93
2021/06/21 12:37:52;;;;;;;;;;;33.90;61.10;;;;;;1853441;77;20202;-93
2021/06/21 12:40:23;;;;;;;;;;;33.80;60.20;;;;;;1863398;77;20250;-93
2021/06/21 12:42:54;;;;;;;;;;;33.80;60.40;;;;;;1863141;77;20182;-94
2021/06/21 12:45:25;;;;;;;;;;;33.80;60.80;;;;;;1849457;77;20289;-91
2021/06/21 12:47:56;;;;;;;;;;;33.80;61.20;;;;;;1847615;77;20174;-91
2021/06/21 12:50:27;;;;;;;;;;;33.70;61.30;;;;;;1843694;77;20581;-93
2021/06/21 12:52:57;;;;;;;;;;;33.70;61.70;;;;;;1852751;77;20176;-93
2021/06/21 12:55:28;;;;;;;;;;;33.70;61.80;;;;;;1842848;77;20302;-93
2021/06/21 12:57:59;;;;;;;;;;;33.60;62.20;;;;;;1855610;77;20124;-91
2021/06/21 13:00:31;;;;;;;;;;;33.60;62.80;;;;;;1909414;74;20505;-94
2021/06/21 13:03:04;;;;;;;;;;;33.60;64.20;;;;;;1821842;77;20287;-94
2021/06/21 13:05:37;;;;;;;;;;;33.50;63.20;;;;;;1828558;77;20210;-95
2021/06/21 13:08:07;;;;;;;;;;;33.50;63.30;;;;;;1792462;79;20154;-95
2021/06/21 13:10:48;;;;;;;;;;;33.50;63.90;;;;;;1854318;76;20466;-93
2021/06/21 13:13:14;;;;;;;;;;;33.40;64.10;;;;;;1818169;78;20125;-95
2021/06/21 13:15:49;;;;;;;;;;;33.40;64.40;;;;;;1886334;74;20191;-94
2021/06/21 13:18:40;;;;;;;;;;;33.40;64.60;;;;;;1897595;74;20260;-95
2021/06/21 13:21:16;;;;;;;;;;;33.40;64.40;;;;;;1825079;77;20230;-93
2021/06/21 13:23:46;;;;;;;;;;;33.30;64.70;;;;;;1824200;76;20229;-93
2021/06/21 13:26:21;;;;;;;;;;;33.30;64.80;;;;;;1821362;78;20188;-93
2021/06/21 13:28:53;;;;;;;;;;;33.20;64.80;;;;;;1811184;78;20232;-93
2021/06/21 13:31:24;;;;;;;;;;;33.20;65.10;;;;;;1807913;78;20196;-95
2021/06/21 13:33:54;;;;;;;;;;;33.20;65.10;;;;;;1816272;78;20192;-92
2021/06/21 13:36:24;;;;;;;;;;;33.20;64.10;;;;;;1836558;78;20178;-94
2021/06/21 13:38:53;;;;;;;;;;;33.20;65.00;;;;;;1849289;76;20197;-94
2021/06/21 13:41:25;;;;;;;;;;;33.10;64.90;;;;;;1792075;78;20258;-91
2021/06/21 13:43:55;;;;;;;;;;;33.20;65.30;;;;;;1765445;79;20235;-94
2021/06/21 13:46:25;;;;;;;;;;;33.10;65.30;;;;;;1767500;80;20175;-93
2021/06/21 13:48:56;;;;;;;;;;;33.10;65.40;;;;;;1786040;79;20653;-93
2021/06/21 13:51:25;;;;;;;;;;;33.00;65.60;;;;;;1778374;78;20814;-93
2021/06/21 13:53:55;;;;;;;;;;;32.90;65.90;;;;;;1828876;78;20197;-92
2021/06/21 13:56:27;;;;;;;;;;;32.90;66.20;;;;;;1827827;78;20211;-93
2021/06/21 13:58:58;;;;;;;;;;;32.90;66.40;;;;;;1848864;76;20146;-92
2021/06/21 14:01:31;;;;;;;;;;;32.90;66.80;;;;;;1863425;77;20512;-94
2021/06/21 14:04:02;;;;;;;;;;;32.80;66.30;;;;;;1838754;77;20201;-94
2021/06/21 14:06:33;;;;;;;;;;;32.70;65.40;;;;;;1919941;74;20204;-93
2021/06/21 14:09:03;;;;;;;;;;;32.80;66.70;;;;;;1918388;74;20161;-90
2021/06/21 14:11:33;;;;;;;;;;;32.70;66.90;;;;;;1916379;74;20549;-91
2021/06/21 14:14:05;;;;;;;;;;;32.60;66.80;;;;;;1899459;73;20167;-93
2021/06/21 14:16:35;;;;;;;;;;;32.50;67.30;;;;;;1905937;74;20950;-94
2021/06/21 14:19:05;;;;;;;;;;;32.40;67.70;;;;;;1916720;73;20166;-95
2021/06/21 14:21:37;;;;;;;;;;;32.20;67.80;;;;;;1911743;73;20243;-94
2021/06/21 14:24:07;;;;;;;;;;;32.10;68.20;;;;;;1927425;73;20171;-93
2021/06/21 14:26:37;;;;;;;;;;;32.00;68.50;;;;;;1917321;73;20219;-95
2021/06/21 14:29:10;;;;;;;;;;;31.80;68.90;;;;;;1922108;73;20188;-93
2021/06/21 14:31:39;;;;;;;;;;;31.80;69.30;;;;;;1918499;73;20181;-94
2021/06/21 14:34:09;;;;;;;;;;;31.70;69.70;;;;;;1921854;73;20185;-94
2021/06/21 14:36:41;;;;;;;;;;;31.60;70.10;;;;;;1895820;74;20226;-92
2021/06/21 14:39:10;;;;;;;;;;;31.50;70.20;;;;;;1904642;74;20215;-92
2021/06/21 14:41:40;;;;;;;;;;;31.40;70.40;;;;;;1911123;73;20148;-94
2021/06/21 14:44:11;;;;;;;;;;;31.40;70.80;;;;;;1905996;74;20163;-93
2021/06/21 14:46:48;;;;;;;;;;;31.40;70.80;;;;;;1907103;74;20227;-94
2021/06/21 14:49:17;;;;;;;;;;;31.30;71.00;;;;;;1913593;74;20199;-94
2021/06/21 14:51:48;;;;;;;;;;;31.30;71.20;;;;;;1907151;74;20288;-92
2021/06/21 14:54:18;;;;;;;;;;;31.30;71.50;;;;;;1916339;74;20226;-92
2021/06/21 14:56:48;;;;;;;;;;;31.20;71.70;;;;;;1911220;73;20317;-93
2021/06/21 14:59:21;;;;;;;;;;;31.20;72.00;;;;;;1912136;73;20226;-93
2021/06/21 15:01:51;;;;;;;;;;;31.10;72.10;;;;;;1915996;73;20314;-92
2021/06/21 15:04:20;;;;;;;;;;;31.10;72.30;;;;;;1912292;73;20246;-90
2021/06/21 15:06:50;;;;;;;;;;;31.10;72.60;;;;;;1918397;73;20213;-90
2021/06/21 15:09:20;;;;;;;;;;;31.10;72.60;;;;;;1915605;73;20226;-91
2021/06/21 15:11:50;;;;;;;;;;;31.10;72.70;;;;;;1924620;73;20240;-92
2021/06/21 15:14:20;;;;;;;;;;;31.00;72.80;;;;;;1947438;73;20220;-91
2021/06/21 15:16:50;;;;;;;;;;;31.00;73.20;;;;;;1912974;74;20206;-91
2021/06/21 15:19:19;;;;;;;;;;;31.00;73.30;;;;;;1929287;73;20180;-89
2021/06/21 15:21:50;;;;;;;;;;;31.00;73.40;;;;;;1914431;73;20174;-91
2021/06/21 15:24:24;;;;;;;;;;;30.90;73.40;;;;;;1931519;73;20192;-87
2021/06/21 15:26:56;;;;;;;;;;;30.90;73.70;;;;;;1924133;73;20175;-91
2021/06/21 15:29:36;;;;;;;;;;;30.90;73.60;;;;;;1914883;73;20136;-90
2021/06/21 15:32:11;;;;;;;;;;;30.90;73.70;;;;;;1914845;73;20181;-91
2021/06/21 15:34:44;;;;;;;;;;;31.00;73.90;;;;;;1902872;73;20223;-92
2021/06/21 15:37:15;;;;;;;;;;;30.90;73.90;;;;;;1932922;73;20189;-89